sensor_id;sensor_type;location;lat;lon;timestamp;temperature;humidity
53748;DHT22;39655;53.210;5.768;2023-09-07T00:01:47;21.10;74.30
53748;DHT22;39655;53.210;5.768;2023-09-07T00:04:13;21.10;74.00
53748;DHT22;39655;53.210;5.768;2023-09-07T00:06:40;21.00;74.80
53748;DHT22;39655;53.210;5.768;2023-09-07T00:09:09;21.00;75.20
53748;DHT22;39655;53.210;5.768;2023-09-07T00:11:37;20.90;74.80
53748;DHT22;39655;53.210;5.768;2023-09-07T00:14:05;20.90;74.50
53748;DHT22;39655;53.210;5.768;2023-09-07T00:16:33;20.80;74.60
53748;DHT22;39655;53.210;5.768;2023-09-07T00:19:04;20.90;74.60
53748;DHT22;39655;53.210;5.768;2023-09-07T00:21:29;20.90;74.40
53748;DHT22;39655;53.210;5.768;2023-09-07T00:23:55;20.80;74.80
53748;DHT22;39655;53.210;5.768;2023-09-07T00:26:21;20.80;75.20
53748;DHT22;39655;53.210;5.768;2023-09-07T00:28:47;20.70;75.40
53748;DHT22;39655;53.210;5.768;2023-09-07T00:31:13;20.70;75.90
53748;DHT22;39655;53.210;5.768;2023-09-07T00:33:39;20.70;75.40
53748;DHT22;39655;53.210;5.768;2023-09-07T00:36:05;20.60;75.60
53748;DHT22;39655;53.210;5.768;2023-09-07T00:38:30;20.60;75.40
53748;DHT22;39655;53.210;5.768;2023-09-07T00:40:56;20.70;75.50
53748;DHT22;39655;53.210;5.768;2023-09-07T00:43:24;20.60;75.20
53748;DHT22;39655;53.210;5.768;2023-09-07T00:45:50;20.60;75.60
53748;DHT22;39655;53.210;5.768;2023-09-07T00:48:16;20.60;75.20
53748;DHT22;39655;53.210;5.768;2023-09-07T00:50:43;20.60;75.60
53748;DHT22;39655;53.210;5.768;2023-09-07T00:53:10;20.60;75.40
53748;DHT22;39655;53.210;5.768;2023-09-07T00:55:36;20.60;76.20
53748;DHT22;39655;53.210;5.768;2023-09-07T00:58:06;20.60;76.50
53748;DHT22;39655;53.210;5.768;2023-09-07T01:00:33;20.50;76.00
53748;DHT22;39655;53.210;5.768;2023-09-07T01:02:59;20.60;76.40
53748;DHT22;39655;53.210;5.768;2023-09-07T01:05:39;20.60;75.50
53748;DHT22;39655;53.210;5.768;2023-09-07T01:08:19;20.60;75.60
53748;DHT22;39655;53.210;5.768;2023-09-07T01:10:48;20.60;75.90
53748;DHT22;39655;53.210;5.768;2023-09-07T01:13:14;20.50;75.60
53748;DHT22;39655;53.210;5.768;2023-09-07T01:15:40;20.40;75.90
53748;DHT22;39655;53.210;5.768;2023-09-07T01:18:06;20.40;76.00
53748;DHT22;39655;53.210;5.768;2023-09-07T01:20:35;20.30;75.70
53748;DHT22;39655;53.210;5.768;2023-09-07T01:23:02;20.20;76.10
53748;DHT22;39655;53.210;5.768;2023-09-07T01:25:28;20.20;75.90
53748;DHT22;39655;53.210;5.768;2023-09-07T01:27:54;20.10;76.10
53748;DHT22;39655;53.210;5.768;2023-09-07T01:30:20;20.10;76.30
53748;DHT22;39655;53.210;5.768;2023-09-07T01:32:46;20.00;76.90
53748;DHT22;39655;53.210;5.768;2023-09-07T01:35:12;20.00;76.60
53748;DHT22;39655;53.210;5.768;2023-09-07T01:37:40;19.90;76.70
53748;DHT22;39655;53.210;5.768;2023-09-07T01:40:06;20.00;76.80
53748;DHT22;39655;53.210;5.768;2023-09-07T01:42:33;19.90;76.40
53748;DHT22;39655;53.210;5.768;2023-09-07T01:44:59;19.90;76.60
53748;DHT22;39655;53.210;5.768;2023-09-07T01:47:24;19.80;76.70
53748;DHT22;39655;53.210;5.768;2023-09-07T01:49:50;19.90;76.90
53748;DHT22;39655;53.210;5.768;2023-09-07T01:52:15;19.80;77.10
53748;DHT22;39655;53.210;5.768;2023-09-07T01:54:41;19.70;77.00
53748;DHT22;39655;53.210;5.768;2023-09-07T01:57:07;19.70;77.40
53748;DHT22;39655;53.210;5.768;2023-09-07T01:59:33;19.60;77.70
53748;DHT22;39655;53.210;5.768;2023-09-07T02:01:58;19.70;78.00
53748;DHT22;39655;53.210;5.768;2023-09-07T02:04:24;19.60;78.10
53748;DHT22;39655;53.210;5.768;2023-09-07T02:06:50;19.60;78.10
53748;DHT22;39655;53.210;5.768;2023-09-07T02:09:15;19.60;78.30
53748;DHT22;39655;53.210;5.768;2023-09-07T02:11:41;19.60;78.40
53748;DHT22;39655;53.210;5.768;2023-09-07T02:14:07;19.50;78.30
53748;DHT22;39655;53.210;5.768;2023-09-07T02:16:35;19.50;78.30
53748;DHT22;39655;53.210;5.768;2023-09-07T02:19:02;19.40;78.40
53748;DHT22;39655;53.210;5.768;2023-09-07T02:21:32;19.40;78.80
53748;DHT22;39655;53.210;5.768;2023-09-07T02:23:58;19.40;78.60
53748;DHT22;39655;53.210;5.768;2023-09-07T02:26:23;19.40;78.50
53748;DHT22;39655;53.210;5.768;2023-09-07T02:28:49;19.30;78.70
53748;DHT22;39655;53.210;5.768;2023-09-07T02:31:15;19.20;78.80
53748;DHT22;39655;53.210;5.768;2023-09-07T02:33:40;19.20;78.80
53748;DHT22;39655;53.210;5.768;2023-09-07T02:36:06;19.20;79.00
53748;DHT22;39655;53.210;5.768;2023-09-07T02:38:32;19.20;78.90
53748;DHT22;39655;53.210;5.768;2023-09-07T02:40:57;19.20;79.10
53748;DHT22;39655;53.210;5.768;2023-09-07T02:43:23;19.20;79.00
53748;DHT22;39655;53.210;5.768;2023-09-07T02:45:49;19.20;78.90
53748;DHT22;39655;53.210;5.768;2023-09-07T02:48:16;19.20;79.10
53748;DHT22;39655;53.210;5.768;2023-09-07T02:50:41;19.10;79.20
53748;DHT22;39655;53.210;5.768;2023-09-07T02:53:08;19.10;79.40
53748;DHT22;39655;53.210;5.768;2023-09-07T02:55:34;19.10;79.40
53748;DHT22;39655;53.210;5.768;2023-09-07T02:58:03;19.00;79.90
53748;DHT22;39655;53.210;5.768;2023-09-07T03:00:29;19.00;79.50
53748;DHT22;39655;53.210;5.768;2023-09-07T03:02:55;19.00;79.50
53748;DHT22;39655;53.210;5.768;2023-09-07T03:05:20;18.90;80.00
53748;DHT22;39655;53.210;5.768;2023-09-07T03:07:46;18.90;80.00
53748;DHT22;39655;53.210;5.768;2023-09-07T03:10:13;18.90;79.70
53748;DHT22;39655;53.210;5.768;2023-09-07T03:12:39;18.90;79.40
53748;DHT22;39655;53.210;5.768;2023-09-07T03:15:05;18.80;80.00
53748;DHT22;39655;53.210;5.768;2023-09-07T03:17:31;18.80;79.40
53748;DHT22;39655;53.210;5.768;2023-09-07T03:19:57;18.80;80.00
53748;DHT22;39655;53.210;5.768;2023-09-07T03:22:23;18.80;80.00
53748;DHT22;39655;53.210;5.768;2023-09-07T03:24:52;18.70;79.60
53748;DHT22;39655;53.210;5.768;2023-09-07T03:27:18;18.70;79.40
53748;DHT22;39655;53.210;5.768;2023-09-07T03:29:49;18.60;79.80
53748;DHT22;39655;53.210;5.768;2023-09-07T03:32:15;18.60;79.60
53748;DHT22;39655;53.210;5.768;2023-09-07T03:34:40;18.60;80.00
53748;DHT22;39655;53.210;5.768;2023-09-07T03:37:06;18.60;79.90
53748;DHT22;39655;53.210;5.768;2023-09-07T03:39:32;18.60;79.90
53748;DHT22;39655;53.210;5.768;2023-09-07T03:41:58;18.60;80.00
53748;DHT22;39655;53.210;5.768;2023-09-07T03:44:24;18.60;80.10
53748;DHT22;39655;53.210;5.768;2023-09-07T03:46:49;18.60;80.80
53748;DHT22;39655;53.210;5.768;2023-09-07T03:49:15;18.60;80.50
53748;DHT22;39655;53.210;5.768;2023-09-07T03:51:41;18.50;80.50
53748;DHT22;39655;53.210;5.768;2023-09-07T03:54:06;18.50;81.10
53748;DHT22;39655;53.210;5.768;2023-09-07T03:56:32;18.40;80.30
53748;DHT22;39655;53.210;5.768;2023-09-07T03:58:58;18.40;80.40
53748;DHT22;39655;53.210;5.768;2023-09-07T04:01:23;18.40;80.50
53748;DHT22;39655;53.210;5.768;2023-09-07T04:03:49;18.30;80.30
53748;DHT22;39655;53.210;5.768;2023-09-07T04:06:15;18.30;80.80
53748;DHT22;39655;53.210;5.768;2023-09-07T04:08:41;18.30;80.90
53748;DHT22;39655;53.210;5.768;2023-09-07T04:11:07;18.30;80.90
53748;DHT22;39655;53.210;5.768;2023-09-07T04:13:32;18.30;80.70
53748;DHT22;39655;53.210;5.768;2023-09-07T04:15:58;18.20;81.00
53748;DHT22;39655;53.210;5.768;2023-09-07T04:18:24;18.20;81.20
53748;DHT22;39655;53.210;5.768;2023-09-07T04:20:50;18.10;81.60
53748;DHT22;39655;53.210;5.768;2023-09-07T04:23:15;18.10;81.50
53748;DHT22;39655;53.210;5.768;2023-09-07T04:25:41;18.10;82.00
53748;DHT22;39655;53.210;5.768;2023-09-07T04:28:07;18.10;82.00
53748;DHT22;39655;53.210;5.768;2023-09-07T04:30:37;18.10;82.10
53748;DHT22;39655;53.210;5.768;2023-09-07T04:33:03;18.10;81.50
53748;DHT22;39655;53.210;5.768;2023-09-07T04:35:29;18.10;81.30
53748;DHT22;39655;53.210;5.768;2023-09-07T04:37:56;18.10;81.20
53748;DHT22;39655;53.210;5.768;2023-09-07T04:40:22;18.00;81.70
53748;DHT22;39655;53.210;5.768;2023-09-07T04:42:48;18.00;82.00
53748;DHT22;39655;53.210;5.768;2023-09-07T04:45:13;18.00;81.70
53748;DHT22;39655;53.210;5.768;2023-09-07T04:47:39;18.10;81.90
53748;DHT22;39655;53.210;5.768;2023-09-07T04:50:05;18.00;81.90
53748;DHT22;39655;53.210;5.768;2023-09-07T04:52:32;18.10;81.40
53748;DHT22;39655;53.210;5.768;2023-09-07T04:55:00;18.10;81.50
53748;DHT22;39655;53.210;5.768;2023-09-07T04:57:25;18.10;81.30
53748;DHT22;39655;53.210;5.768;2023-09-07T04:59:51;18.20;81.80
53748;DHT22;39655;53.210;5.768;2023-09-07T05:02:16;18.20;81.60
53748;DHT22;39655;53.210;5.768;2023-09-07T05:04:42;18.20;81.90
53748;DHT22;39655;53.210;5.768;2023-09-07T05:07:08;18.20;81.90
53748;DHT22;39655;53.210;5.768;2023-09-07T05:09:34;18.20;81.60
53748;DHT22;39655;53.210;5.768;2023-09-07T05:11:59;18.20;81.30
53748;DHT22;39655;53.210;5.768;2023-09-07T05:14:25;18.20;81.60
53748;DHT22;39655;53.210;5.768;2023-09-07T05:16:51;18.20;81.60
53748;DHT22;39655;53.210;5.768;2023-09-07T05:19:17;18.20;81.70
53748;DHT22;39655;53.210;5.768;2023-09-07T05:21:42;18.20;81.50
53748;DHT22;39655;53.210;5.768;2023-09-07T05:24:08;18.10;81.90
53748;DHT22;39655;53.210;5.768;2023-09-07T05:26:34;18.20;81.60
53748;DHT22;39655;53.210;5.768;2023-09-07T05:29:00;18.30;81.60
53748;DHT22;39655;53.210;5.768;2023-09-07T05:31:25;18.30;81.70
53748;DHT22;39655;53.210;5.768;2023-09-07T05:33:52;18.30;81.40
53748;DHT22;39655;53.210;5.768;2023-09-07T05:36:18;18.30;81.40
53748;DHT22;39655;53.210;5.768;2023-09-07T05:38:44;18.40;81.40
53748;DHT22;39655;53.210;5.768;2023-09-07T05:41:09;18.40;81.40
53748;DHT22;39655;53.210;5.768;2023-09-07T05:43:35;18.40;81.40
53748;DHT22;39655;53.210;5.768;2023-09-07T05:46:01;18.50;81.40
53748;DHT22;39655;53.210;5.768;2023-09-07T05:48:26;18.50;81.40
53748;DHT22;39655;53.210;5.768;2023-09-07T05:50:52;18.50;81.30
53748;DHT22;39655;53.210;5.768;2023-09-07T05:53:21;18.50;81.30
53748;DHT22;39655;53.210;5.768;2023-09-07T05:55:47;18.60;81.20
53748;DHT22;39655;53.210;5.768;2023-09-07T05:58:13;18.60;81.00
53748;DHT22;39655;53.210;5.768;2023-09-07T06:00:38;18.70;81.10
53748;DHT22;39655;53.210;5.768;2023-09-07T06:03:06;18.70;81.10
53748;DHT22;39655;53.210;5.768;2023-09-07T06:05:33;18.70;81.00
53748;DHT22;39655;53.210;5.768;2023-09-07T06:07:58;18.80;80.80
53748;DHT22;39655;53.210;5.768;2023-09-07T06:10:24;18.80;80.60
53748;DHT22;39655;53.210;5.768;2023-09-07T06:12:50;18.90;80.70
53748;DHT22;39655;53.210;5.768;2023-09-07T06:15:16;18.90;80.40
53748;DHT22;39655;53.210;5.768;2023-09-07T06:17:42;18.90;80.40
53748;DHT22;39655;53.210;5.768;2023-09-07T06:20:08;18.90;80.30
53748;DHT22;39655;53.210;5.768;2023-09-07T06:22:34;19.00;80.20
53748;DHT22;39655;53.210;5.768;2023-09-07T06:25:00;19.10;80.10
53748;DHT22;39655;53.210;5.768;2023-09-07T06:27:27;19.10;80.00
53748;DHT22;39655;53.210;5.768;2023-09-07T06:29:52;19.10;80.00
53748;DHT22;39655;53.210;5.768;2023-09-07T06:32:18;19.20;79.80
53748;DHT22;39655;53.210;5.768;2023-09-07T06:34:44;19.30;79.60
53748;DHT22;39655;53.210;5.768;2023-09-07T06:37:11;19.40;79.40
53748;DHT22;39655;53.210;5.768;2023-09-07T06:39:37;19.50;79.30
53748;DHT22;39655;53.210;5.768;2023-09-07T06:42:03;19.50;79.10
53748;DHT22;39655;53.210;5.768;2023-09-07T06:44:29;19.50;78.90
53748;DHT22;39655;53.210;5.768;2023-09-07T06:46:55;19.60;78.80
53748;DHT22;39655;53.210;5.768;2023-09-07T06:49:21;19.60;78.60
53748;DHT22;39655;53.210;5.768;2023-09-07T06:51:47;19.70;78.60
53748;DHT22;39655;53.210;5.768;2023-09-07T06:54:13;19.80;78.40
53748;DHT22;39655;53.210;5.768;2023-09-07T06:56:39;19.90;78.20
53748;DHT22;39655;53.210;5.768;2023-09-07T06:59:05;20.10;77.90
53748;DHT22;39655;53.210;5.768;2023-09-07T07:01:30;20.10;77.60
53748;DHT22;39655;53.210;5.768;2023-09-07T07:03:56;20.20;77.50
53748;DHT22;39655;53.210;5.768;2023-09-07T07:06:23;20.30;77.40
53748;DHT22;39655;53.210;5.768;2023-09-07T07:08:49;20.40;77.30
53748;DHT22;39655;53.210;5.768;2023-09-07T07:11:15;20.50;77.00
53748;DHT22;39655;53.210;5.768;2023-09-07T07:13:41;20.60;76.80
53748;DHT22;39655;53.210;5.768;2023-09-07T07:16:07;20.60;76.50
53748;DHT22;39655;53.210;5.768;2023-09-07T07:18:32;20.70;75.90
53748;DHT22;39655;53.210;5.768;2023-09-07T07:20:58;20.70;75.80
53748;DHT22;39655;53.210;5.768;2023-09-07T07:23:24;20.80;75.90
53748;DHT22;39655;53.210;5.768;2023-09-07T07:26:12;20.90;75.30
53748;DHT22;39655;53.210;5.768;2023-09-07T07:28:45;21.00;75.20
53748;DHT22;39655;53.210;5.768;2023-09-07T07:31:13;21.10;74.90
53748;DHT22;39655;53.210;5.768;2023-09-07T07:33:46;21.20;74.40
53748;DHT22;39655;53.210;5.768;2023-09-07T07:36:15;21.40;73.80
53748;DHT22;39655;53.210;5.768;2023-09-07T07:38:41;21.50;73.70
53748;DHT22;39655;53.210;5.768;2023-09-07T07:41:12;21.50;73.90
53748;DHT22;39655;53.210;5.768;2023-09-07T07:43:43;21.60;73.50
53748;DHT22;39655;53.210;5.768;2023-09-07T07:46:11;21.70;72.30
53748;DHT22;39655;53.210;5.768;2023-09-07T07:48:41;21.80;72.50
53748;DHT22;39655;53.210;5.768;2023-09-07T07:51:07;21.90;72.50
53748;DHT22;39655;53.210;5.768;2023-09-07T07:53:35;22.00;72.20
53748;DHT22;39655;53.210;5.768;2023-09-07T07:56:14;22.10;72.60
53748;DHT22;39655;53.210;5.768;2023-09-07T07:58:40;22.10;71.90
53748;DHT22;39655;53.210;5.768;2023-09-07T08:01:21;22.20;71.90
53748;DHT22;39655;53.210;5.768;2023-09-07T08:03:47;22.30;71.30
53748;DHT22;39655;53.210;5.768;2023-09-07T08:06:13;22.30;71.10
53748;DHT22;39655;53.210;5.768;2023-09-07T08:08:44;22.40;71.00
53748;DHT22;39655;53.210;5.768;2023-09-07T08:11:10;22.50;69.60
53748;DHT22;39655;53.210;5.768;2023-09-07T08:13:36;22.60;69.90
53748;DHT22;39655;53.210;5.768;2023-09-07T08:16:12;22.60;70.00
53748;DHT22;39655;53.210;5.768;2023-09-07T08:18:38;22.70;69.70
53748;DHT22;39655;53.210;5.768;2023-09-07T08:21:05;22.80;69.60
53748;DHT22;39655;53.210;5.768;2023-09-07T08:23:31;22.90;69.30
53748;DHT22;39655;53.210;5.768;2023-09-07T08:25:57;23.00;69.40
53748;DHT22;39655;53.210;5.768;2023-09-07T08:28:24;23.00;68.80
53748;DHT22;39655;53.210;5.768;2023-09-07T08:30:51;23.10;68.60
53748;DHT22;39655;53.210;5.768;2023-09-07T08:33:21;23.20;69.10
53748;DHT22;39655;53.210;5.768;2023-09-07T08:35:56;23.20;68.80
53748;DHT22;39655;53.210;5.768;2023-09-07T08:38:22;23.40;68.80
53748;DHT22;39655;53.210;5.768;2023-09-07T08:40:54;23.50;67.90
53748;DHT22;39655;53.210;5.768;2023-09-07T08:43:28;23.60;68.30
53748;DHT22;39655;53.210;5.768;2023-09-07T08:46:15;23.70;67.10
53748;DHT22;39655;53.210;5.768;2023-09-07T08:48:43;23.80;66.40
53748;DHT22;39655;53.210;5.768;2023-09-07T08:51:18;23.90;66.50
53748;DHT22;39655;53.210;5.768;2023-09-07T08:53:44;23.90;66.30
53748;DHT22;39655;53.210;5.768;2023-09-07T08:56:16;24.00;65.30
53748;DHT22;39655;53.210;5.768;2023-09-07T08:58:45;24.10;65.40
53748;DHT22;39655;53.210;5.768;2023-09-07T09:01:15;24.20;65.00
53748;DHT22;39655;53.210;5.768;2023-09-07T09:03:42;24.20;65.60
53748;DHT22;39655;53.210;5.768;2023-09-07T09:06:11;24.40;65.50
53748;DHT22;39655;53.210;5.768;2023-09-07T09:08:44;24.50;65.70
53748;DHT22;39655;53.210;5.768;2023-09-07T09:11:10;24.60;65.00
53748;DHT22;39655;53.210;5.768;2023-09-07T09:13:36;24.80;64.60
53748;DHT22;39655;53.210;5.768;2023-09-07T09:16:02;24.90;63.70
53748;DHT22;39655;53.210;5.768;2023-09-07T09:18:28;24.90;63.90
53748;DHT22;39655;53.210;5.768;2023-09-07T09:20:56;25.00;64.20
53748;DHT22;39655;53.210;5.768;2023-09-07T09:23:29;25.10;64.40
53748;DHT22;39655;53.210;5.768;2023-09-07T09:25:56;25.10;63.80
53748;DHT22;39655;53.210;5.768;2023-09-07T09:28:22;25.20;63.70
53748;DHT22;39655;53.210;5.768;2023-09-07T09:30:48;25.30;63.80
53748;DHT22;39655;53.210;5.768;2023-09-07T09:33:14;25.40;63.60
53748;DHT22;39655;53.210;5.768;2023-09-07T09:35:42;25.40;63.40
53748;DHT22;39655;53.210;5.768;2023-09-07T09:38:12;25.50;63.90
53748;DHT22;39655;53.210;5.768;2023-09-07T09:40:44;25.60;63.20
53748;DHT22;39655;53.210;5.768;2023-09-07T09:43:12;25.60;62.30
53748;DHT22;39655;53.210;5.768;2023-09-07T09:45:40;25.60;62.40
53748;DHT22;39655;53.210;5.768;2023-09-07T09:48:06;25.70;62.70
53748;DHT22;39655;53.210;5.768;2023-09-07T09:50:33;25.70;61.90
53748;DHT22;39655;53.210;5.768;2023-09-07T09:53:12;25.80;61.30
53748;DHT22;39655;53.210;5.768;2023-09-07T09:55:49;25.90;61.10
53748;DHT22;39655;53.210;5.768;2023-09-07T09:58:18;26.00;61.20
53748;DHT22;39655;53.210;5.768;2023-09-07T10:00:45;26.10;61.10
53748;DHT22;39655;53.210;5.768;2023-09-07T10:03:29;26.20;60.80
53748;DHT22;39655;53.210;5.768;2023-09-07T10:06:34;26.30;60.80
53748;DHT22;39655;53.210;5.768;2023-09-07T10:09:19;26.40;60.90
53748;DHT22;39655;53.210;5.768;2023-09-07T10:11:54;26.60;58.70
53748;DHT22;39655;53.210;5.768;2023-09-07T10:14:23;26.60;59.60
53748;DHT22;39655;53.210;5.768;2023-09-07T10:16:53;26.70;59.60
53748;DHT22;39655;53.210;5.768;2023-09-07T10:19:25;26.80;58.10
53748;DHT22;39655;53.210;5.768;2023-09-07T10:22:00;26.90;56.40
53748;DHT22;39655;53.210;5.768;2023-09-07T10:24:35;27.00;57.20
53748;DHT22;39655;53.210;5.768;2023-09-07T10:27:08;27.00;57.30
53748;DHT22;39655;53.210;5.768;2023-09-07T10:29:50;27.10;57.40
53748;DHT22;39655;53.210;5.768;2023-09-07T10:32:20;27.20;57.30
53748;DHT22;39655;53.210;5.768;2023-09-07T10:34:47;27.30;57.30
53748;DHT22;39655;53.210;5.768;2023-09-07T10:37:30;27.50;57.00
53748;DHT22;39655;53.210;5.768;2023-09-07T10:40:08;27.60;56.50
53748;DHT22;39655;53.210;5.768;2023-09-07T10:42:39;27.70;56.50
53748;DHT22;39655;53.210;5.768;2023-09-07T10:45:16;27.70;56.30
53748;DHT22;39655;53.210;5.768;2023-09-07T10:47:44;27.80;54.30
53748;DHT22;39655;53.210;5.768;2023-09-07T10:50:14;27.90;55.40
53748;DHT22;39655;53.210;5.768;2023-09-07T10:52:56;28.00;55.90
53748;DHT22;39655;53.210;5.768;2023-09-07T10:55:36;28.00;55.00
53748;DHT22;39655;53.210;5.768;2023-09-07T10:58:02;28.10;54.20
53748;DHT22;39655;53.210;5.768;2023-09-07T11:00:37;28.10;54.20
53748;DHT22;39655;53.210;5.768;2023-09-07T11:03:07;28.20;53.90
53748;DHT22;39655;53.210;5.768;2023-09-07T11:05:39;28.30;54.60
53748;DHT22;39655;53.210;5.768;2023-09-07T11:08:06;28.50;53.90
53748;DHT22;39655;53.210;5.768;2023-09-07T11:10:33;28.60;53.10
53748;DHT22;39655;53.210;5.768;2023-09-07T11:13:04;28.60;53.00
53748;DHT22;39655;53.210;5.768;2023-09-07T11:15:36;28.70;53.30
53748;DHT22;39655;53.210;5.768;2023-09-07T11:18:07;28.80;53.00
53748;DHT22;39655;53.210;5.768;2023-09-07T11:20:40;28.90;53.70
53748;DHT22;39655;53.210;5.768;2023-09-07T11:23:31;29.00;53.20
53748;DHT22;39655;53.210;5.768;2023-09-07T11:26:13;29.10;52.10
53748;DHT22;39655;53.210;5.768;2023-09-07T11:28:44;29.20;50.90
53748;DHT22;39655;53.210;5.768;2023-09-07T11:31:13;29.40;51.00
53748;DHT22;39655;53.210;5.768;2023-09-07T11:33:48;29.70;50.40
53748;DHT22;39655;53.210;5.768;2023-09-07T11:36:15;30.10;50.10
53748;DHT22;39655;53.210;5.768;2023-09-07T11:38:44;30.80;48.90
53748;DHT22;39655;53.210;5.768;2023-09-07T11:41:13;31.50;46.80
53748;DHT22;39655;53.210;5.768;2023-09-07T11:43:39;32.10;46.30
53748;DHT22;39655;53.210;5.768;2023-09-07T11:46:10;32.60;44.00
53748;DHT22;39655;53.210;5.768;2023-09-07T11:48:40;33.10;43.20
53748;DHT22;39655;53.210;5.768;2023-09-07T11:51:18;33.30;42.90
53748;DHT22;39655;53.210;5.768;2023-09-07T11:53:46;33.80;42.10
53748;DHT22;39655;53.210;5.768;2023-09-07T11:56:18;34.30;40.00
53748;DHT22;39655;53.210;5.768;2023-09-07T11:58:46;34.50;40.20
53748;DHT22;39655;53.210;5.768;2023-09-07T12:01:12;34.70;39.50
53748;DHT22;39655;53.210;5.768;2023-09-07T12:03:47;35.00;39.50
53748;DHT22;39655;53.210;5.768;2023-09-07T12:06:13;35.10;38.00
53748;DHT22;39655;53.210;5.768;2023-09-07T12:08:42;35.00;39.00
53748;DHT22;39655;53.210;5.768;2023-09-07T12:11:23;35.00;38.20
53748;DHT22;39655;53.210;5.768;2023-09-07T12:13:48;35.10;38.50
53748;DHT22;39655;53.210;5.768;2023-09-07T12:16:25;35.30;38.10
53748;DHT22;39655;53.210;5.768;2023-09-07T12:18:54;35.50;37.50
53748;DHT22;39655;53.210;5.768;2023-09-07T12:21:20;35.60;36.60
53748;DHT22;39655;53.210;5.768;2023-09-07T12:23:46;35.40;36.80
53748;DHT22;39655;53.210;5.768;2023-09-07T12:26:13;35.30;37.20
53748;DHT22;39655;53.210;5.768;2023-09-07T12:28:40;35.40;36.70
53748;DHT22;39655;53.210;5.768;2023-09-07T12:31:06;35.90;37.60
53748;DHT22;39655;53.210;5.768;2023-09-07T12:33:42;36.20;37.00
53748;DHT22;39655;53.210;5.768;2023-09-07T12:36:14;36.50;36.10
53748;DHT22;39655;53.210;5.768;2023-09-07T12:38:40;36.40;35.70
53748;DHT22;39655;53.210;5.768;2023-09-07T12:41:06;36.50;35.90
53748;DHT22;39655;53.210;5.768;2023-09-07T12:43:36;36.70;35.10
53748;DHT22;39655;53.210;5.768;2023-09-07T12:46:02;36.70;36.10
53748;DHT22;39655;53.210;5.768;2023-09-07T12:48:28;37.00;35.40
53748;DHT22;39655;53.210;5.768;2023-09-07T12:50:54;37.20;35.30
53748;DHT22;39655;53.210;5.768;2023-09-07T12:53:20;37.40;35.00
53748;DHT22;39655;53.210;5.768;2023-09-07T12:55:51;37.50;34.20
53748;DHT22;39655;53.210;5.768;2023-09-07T12:58:18;37.70;35.00
53748;DHT22;39655;53.210;5.768;2023-09-07T13:00:46;38.00;34.20
53748;DHT22;39655;53.210;5.768;2023-09-07T13:03:16;38.10;33.80
53748;DHT22;39655;53.210;5.768;2023-09-07T13:05:43;38.10;32.80
53748;DHT22;39655;53.210;5.768;2023-09-07T13:08:11;38.20;33.60
53748;DHT22;39655;53.210;5.768;2023-09-07T13:10:43;38.60;34.10
53748;DHT22;39655;53.210;5.768;2023-09-07T13:13:14;39.00;32.30
53748;DHT22;39655;53.210;5.768;2023-09-07T13:15:45;39.10;32.40
53748;DHT22;39655;53.210;5.768;2023-09-07T13:18:11;38.80;32.30
53748;DHT22;39655;53.210;5.768;2023-09-07T13:20:42;38.60;32.30
53748;DHT22;39655;53.210;5.768;2023-09-07T13:23:13;38.80;32.10
53748;DHT22;39655;53.210;5.768;2023-09-07T13:25:39;38.80;32.60
53748;DHT22;39655;53.210;5.768;2023-09-07T13:28:05;38.70;32.30
53748;DHT22;39655;53.210;5.768;2023-09-07T13:30:33;38.60;32.50
53748;DHT22;39655;53.210;5.768;2023-09-07T13:32:59;38.80;32.40
53748;DHT22;39655;53.210;5.768;2023-09-07T13:35:28;38.60;32.00
53748;DHT22;39655;53.210;5.768;2023-09-07T13:37:57;38.60;32.40
53748;DHT22;39655;53.210;5.768;2023-09-07T13:40:26;38.70;32.60
53748;DHT22;39655;53.210;5.768;2023-09-07T13:42:55;38.90;31.40
53748;DHT22;39655;53.210;5.768;2023-09-07T13:45:24;38.90;31.80
53748;DHT22;39655;53.210;5.768;2023-09-07T13:47:50;38.80;32.40
53748;DHT22;39655;53.210;5.768;2023-09-07T13:50:16;38.90;32.70
53748;DHT22;39655;53.210;5.768;2023-09-07T13:52:41;39.20;32.80
53748;DHT22;39655;53.210;5.768;2023-09-07T13:55:12;39.50;31.20
53748;DHT22;39655;53.210;5.768;2023-09-07T13:57:38;39.80;30.80
53748;DHT22;39655;53.210;5.768;2023-09-07T14:00:05;39.80;30.40
53748;DHT22;39655;53.210;5.768;2023-09-07T14:02:31;39.50;29.80
53748;DHT22;39655;53.210;5.768;2023-09-07T14:04:58;39.40;29.60
53748;DHT22;39655;53.210;5.768;2023-09-07T14:07:24;39.40;29.70
53748;DHT22;39655;53.210;5.768;2023-09-07T14:09:53;39.50;30.10
53748;DHT22;39655;53.210;5.768;2023-09-07T14:12:28;39.80;30.50
53748;DHT22;39655;53.210;5.768;2023-09-07T14:14:56;39.80;29.40
53748;DHT22;39655;53.210;5.768;2023-09-07T14:17:22;39.90;28.10
53748;DHT22;39655;53.210;5.768;2023-09-07T14:19:47;40.00;28.30
53748;DHT22;39655;53.210;5.768;2023-09-07T14:22:16;40.00;27.90
53748;DHT22;39655;53.210;5.768;2023-09-07T14:24:41;40.00;27.80
53748;DHT22;39655;53.210;5.768;2023-09-07T14:27:07;40.30;27.40
53748;DHT22;39655;53.210;5.768;2023-09-07T14:29:35;40.30;27.40
53748;DHT22;39655;53.210;5.768;2023-09-07T14:32:01;40.00;27.10
53748;DHT22;39655;53.210;5.768;2023-09-07T14:34:27;40.20;28.10
53748;DHT22;39655;53.210;5.768;2023-09-07T14:36:53;40.60;28.70
53748;DHT22;39655;53.210;5.768;2023-09-07T14:39:20;41.00;27.30
53748;DHT22;39655;53.210;5.768;2023-09-07T14:41:50;40.80;26.60
53748;DHT22;39655;53.210;5.768;2023-09-07T14:44:19;40.40;25.90
53748;DHT22;39655;53.210;5.768;2023-09-07T14:46:45;40.30;26.60
53748;DHT22;39655;53.210;5.768;2023-09-07T14:49:15;40.00;26.80
53748;DHT22;39655;53.210;5.768;2023-09-07T14:51:43;40.00;27.10
53748;DHT22;39655;53.210;5.768;2023-09-07T14:54:13;40.00;27.20
53748;DHT22;39655;53.210;5.768;2023-09-07T14:56:39;40.20;27.30
53748;DHT22;39655;53.210;5.768;2023-09-07T14:59:34;40.20;27.20
53748;DHT22;39655;53.210;5.768;2023-09-07T15:02:02;40.60;26.50
53748;DHT22;39655;53.210;5.768;2023-09-07T15:04:38;40.50;26.70
53748;DHT22;39655;53.210;5.768;2023-09-07T15:07:32;40.60;27.00
53748;DHT22;39655;53.210;5.768;2023-09-07T15:09:58;40.60;26.30
53748;DHT22;39655;53.210;5.768;2023-09-07T15:12:26;40.50;26.50
53748;DHT22;39655;53.210;5.768;2023-09-07T15:15:02;40.10;26.50
53748;DHT22;39655;53.210;5.768;2023-09-07T15:17:28;40.00;27.20
53748;DHT22;39655;53.210;5.768;2023-09-07T15:20:07;40.00;28.20
53748;DHT22;39655;53.210;5.768;2023-09-07T15:22:33;40.30;28.30
53748;DHT22;39655;53.210;5.768;2023-09-07T15:25:11;40.50;27.30
53748;DHT22;39655;53.210;5.768;2023-09-07T15:27:43;40.80;27.70
53748;DHT22;39655;53.210;5.768;2023-09-07T15:30:14;40.80;27.30
53748;DHT22;39655;53.210;5.768;2023-09-07T15:32:46;40.60;26.90
53748;DHT22;39655;53.210;5.768;2023-09-07T15:35:30;40.30;27.40
53748;DHT22;39655;53.210;5.768;2023-09-07T15:38:29;40.30;27.10